createdAt,value
2022-11-14T00:00:29.885Z,100933.93
2022-11-14T00:01:50.618Z,100925.03
2022-11-14T00:03:13.674Z,100925.03
2022-11-14T00:04:34.469Z,100925.88
2022-11-14T00:05:55.690Z,100920.52
2022-11-14T00:07:16.305Z,100923.11
2022-11-14T00:08:37.092Z,100926.73
2022-11-14T00:09:58.103Z,100924.05
2022-11-14T00:11:18.405Z,100917.74
2022-11-14T00:12:39.241Z,100922.25
2022-11-14T00:14:00.011Z,100920.42
2022-11-14T00:15:21.136Z,100923.99
2022-11-14T00:16:42.025Z,100915.95
2022-11-14T00:18:05.154Z,100921.31
2022-11-14T00:19:26.024Z,100923.99
2022-11-14T00:20:48.146Z,100914.11
2022-11-14T00:22:10.076Z,100924.84
2022-11-14T00:23:30.993Z,100923.02
2022-11-14T00:24:51.448Z,100917.65
2022-11-14T00:26:12.099Z,100923.90
2022-11-14T00:27:32.509Z,100923.90
2022-11-14T00:30:08.080Z,100929.51
2022-11-14T00:31:29.446Z,100920.23
2022-11-14T00:32:50.612Z,100929.27
2022-11-14T00:34:11.857Z,100915.85
2022-11-14T00:35:32.607Z,100924.66
2022-11-14T00:36:53.638Z,100928.23
2022-11-14T00:38:14.266Z,100921.98
2022-11-14T00:39:35.259Z,100929.94
2022-11-14T00:40:55.673Z,100936.28
2022-11-14T00:42:17.592Z,100929.94
2022-11-14T00:43:38.002Z,100932.71
2022-11-14T00:44:58.999Z,100934.45
2022-11-14T00:46:19.372Z,100934.36
2022-11-14T00:47:40.192Z,100929.94
2022-11-14T00:49:01.501Z,100925.55
2022-11-14T00:50:22.275Z,100931.77
2022-11-14T00:51:42.854Z,100935.30
2022-11-14T00:53:03.887Z,100929.08
2022-11-14T00:54:24.680Z,100932.62
2022-11-14T00:55:45.953Z,100927.25
2022-11-14T00:57:06.635Z,100924.56
2022-11-14T00:58:28.399Z,100926.30
2022-11-14T00:59:49.371Z,100923.62
2022-11-14T01:01:10.023Z,100925.45
2022-11-14T01:02:30.923Z,100928.14
2022-11-14T01:03:51.778Z,100923.72
2022-11-14T01:05:12.458Z,100932.62
2022-11-14T01:06:33.458Z,100927.25
2022-11-14T01:07:54.074Z,100929.94
2022-11-14T01:09:15.474Z,100921.89
2022-11-14T01:10:43.426Z,100928.99
2022-11-14T01:12:04.467Z,100928.14
2022-11-14T01:13:25.816Z,100927.25
2022-11-14T01:14:46.388Z,100928.14
2022-11-14T01:16:07.370Z,100933.50
2022-11-14T01:17:28.019Z,100930.82
2022-11-14T01:18:49.956Z,100930.82
2022-11-14T01:20:12.066Z,100934.36
2022-11-14T01:21:32.460Z,100931.67
2022-11-14T01:22:53.324Z,100931.58
2022-11-14T01:24:14.732Z,100935.20
2022-11-14T01:25:37.384Z,100942.31
2022-11-14T01:26:57.924Z,100943.20
2022-11-14T01:28:18.979Z,100933.41
2022-11-14T01:29:40.088Z,100932.53
2022-11-14T01:31:15.471Z,100932.53
2022-11-14T01:32:36.223Z,100936.09
2022-11-14T01:33:56.688Z,100932.53
2022-11-14T01:35:17.518Z,100935.20
2022-11-14T01:36:38.106Z,100940.58
2022-11-14T01:37:59.516Z,100931.67
2022-11-14T01:39:21.089Z,100933.41
2022-11-14T01:40:43.721Z,100938.78
2022-11-14T01:42:04.596Z,100937.89
2022-11-14T01:43:27.723Z,100936.09
2022-11-14T01:44:51.246Z,100928.90
2022-11-14T01:46:24.535Z,100944.14
2022-11-14T01:47:44.913Z,100940.52
2022-11-14T01:49:18.491Z,100946.73
2022-11-14T01:50:39.700Z,100946.83
2022-11-14T01:53:20.317Z,100941.70
2022-11-14T01:54:44.754Z,100941.46
2022-11-14T01:56:06.385Z,100943.26
2022-11-14T01:58:43.558Z,100939.87
2022-11-14T02:00:07.415Z,100945.88
2022-11-14T02:01:29.710Z,100947.59
2022-11-14T02:02:50.422Z,100938.69
2022-11-14T02:04:15.124Z,100939.63
2022-11-14T02:05:33.842Z,100940.67
2022-11-14T02:06:56.938Z,100935.48
2022-11-14T02:08:17.914Z,100941.89
2022-11-14T02:09:40.280Z,100941.22
2022-11-14T02:11:01.531Z,100942.34
2022-11-14T02:12:22.232Z,100939.81
2022-11-14T02:13:43.003Z,100939.14
2022-11-14T02:15:05.016Z,100942.86
2022-11-14T02:16:26.425Z,100936.79
2022-11-14T02:17:47.863Z,100940.53
2022-11-14T02:19:08.535Z,100936.20
2022-11-14T02:20:30.194Z,100937.20
2022-11-14T02:21:51.391Z,100934.70
2022-11-14T02:23:14.205Z,100939.27
2022-11-14T02:24:34.790Z,100946.55
2022-11-14T02:25:57.151Z,100943.16
2022-11-14T02:27:17.952Z,100943.34
2022-11-14T02:28:39.975Z,100944.38
2022-11-14T02:30:05.891Z,100944.45
2022-11-14T02:31:26.602Z,100940.22
2022-11-14T02:34:09.960Z,100944.10
2022-11-14T02:35:31.630Z,100945.92
2022-11-14T02:36:52.305Z,100942.53
2022-11-14T02:38:13.158Z,100941.91
2022-11-14T02:39:34.040Z,100942.09
2022-11-14T02:40:54.803Z,100941.46
2022-11-14T02:42:15.703Z,100937.30
2022-11-14T02:43:37.110Z,100936.62
2022-11-14T02:44:57.434Z,100941.27
2022-11-14T02:46:18.180Z,100937.02
2022-11-14T02:47:38.678Z,100941.61
2022-11-14T02:48:59.529Z,100942.63
2022-11-14T02:50:20.788Z,100937.45
2022-11-14T02:51:41.534Z,100939.33
2022-11-14T02:53:03.380Z,100942.14
2022-11-14T02:54:24.539Z,100949.37
2022-11-14T02:55:45.410Z,100944.98
2022-11-14T02:57:06.328Z,100943.33
2022-11-14T02:58:27.371Z,100939.85
2022-11-14T02:59:48.293Z,100946.17
2022-11-14T03:01:24.393Z,100948.86
2022-11-14T03:02:31.458Z,100948.86
2022-11-14T03:03:52.142Z,100949.88
2022-11-14T03:05:13.050Z,100944.52
2022-11-14T03:06:35.522Z,100947.20
2022-11-14T03:07:55.875Z,100945.46
2022-11-14T03:09:17.272Z,100942.78
2022-11-14T03:10:37.975Z,100938.36
2022-11-14T03:11:58.595Z,100944.61
2022-11-14T03:13:19.396Z,100937.42
2022-11-14T03:14:40.360Z,100936.57
2022-11-14T03:16:08.138Z,100934.75
2022-11-14T03:17:31.977Z,100934.75
2022-11-14T03:18:52.700Z,100938.36
2022-11-14T03:20:14.069Z,100935.69
2022-11-14T03:21:34.799Z,100949.96
2022-11-14T03:22:56.535Z,100950.81
2022-11-14T03:24:18.059Z,100951.75
2022-11-14T03:25:39.100Z,100951.75
2022-11-14T03:26:59.829Z,100946.39
2022-11-14T03:28:20.538Z,100952.64
2022-11-14T03:29:41.303Z,100944.61
2022-11-14T03:31:02.147Z,100953.49
2022-11-14T03:32:23.178Z,100951.75
2022-11-14T03:33:43.664Z,100953.58
2022-11-14T03:35:06.000Z,100949.96
2022-11-14T03:36:26.658Z,100951.75
2022-11-14T03:37:47.476Z,100962.47
2022-11-14T03:39:08.198Z,100963.41
2022-11-14T03:40:28.933Z,100953.58
2022-11-14T03:41:49.796Z,100963.35
2022-11-14T03:43:10.551Z,100956.17
2022-11-14T03:44:32.730Z,100953.41
2022-11-14T03:45:53.572Z,100954.27
2022-11-14T03:47:14.436Z,100960.51
2022-11-14T03:48:35.378Z,100956.00
2022-11-14T03:49:57.313Z,100958.59
2022-11-14T03:51:18.864Z,100962.16
2022-11-14T03:52:39.758Z,100958.59
2022-11-14T03:54:00.597Z,100962.16
2022-11-14T03:55:22.440Z,100954.98
2022-11-14T03:56:43.138Z,100957.58
2022-11-14T06:14:24.210Z,101037.53
2022-11-14T06:15:44.911Z,101042.17
2022-11-14T06:17:05.748Z,101040.89
2022-11-14T06:18:26.987Z,101041.41
2022-11-14T06:19:47.942Z,101040.91
2022-11-14T06:21:14.102Z,101041.26
2022-11-14T06:22:36.096Z,101044.27
2022-11-14T06:23:56.853Z,101040.14
2022-11-14T06:25:17.488Z,101037.80
2022-11-14T06:26:38.917Z,101040.86
2022-11-14T06:28:01.187Z,101034.22
2022-11-14T06:29:21.705Z,101034.52
2022-11-14T06:30:42.504Z,101033.22
2022-11-14T06:32:03.065Z,101036.34
2022-11-14T06:33:23.817Z,101040.41
2022-11-14T06:34:45.667Z,101032.88
2022-11-14T06:36:07.694Z,101041.41
2022-11-14T06:37:32.566Z,101043.80
2022-11-14T06:38:50.289Z,101036.28
2022-11-14T06:40:13.452Z,101042.25
2022-11-14T06:41:34.151Z,101045.55
2022-11-14T06:42:56.574Z,101046.20
2022-11-14T06:44:17.563Z,101017.20
2022-11-14T06:45:38.601Z,101045.77
2022-11-14T06:47:00.675Z,101050.87
2022-11-14T06:48:22.793Z,101045.37
2022-11-14T06:49:43.825Z,101045.20
2022-11-14T06:51:05.343Z,101044.11
2022-11-14T06:52:26.005Z,101045.78
2022-11-14T06:53:46.981Z,101050.12
2022-11-14T06:55:07.852Z,101046.42
2022-11-14T06:56:28.634Z,101040.98
2022-11-14T06:57:55.965Z,101041.77
2022-11-14T06:59:17.688Z,101048.86
2022-11-14T07:00:38.255Z,101051.46
2022-11-14T07:01:59.350Z,101048.78
2022-11-14T07:03:20.448Z,101053.13
2022-11-14T07:04:41.848Z,101051.33
2022-11-14T07:06:04.215Z,101057.46
2022-11-14T07:07:25.289Z,101056.52
2022-11-14T07:10:08.962Z,101052.83
2022-11-14T07:11:29.674Z,101055.42
2022-11-14T07:12:51.179Z,101055.42
2022-11-14T07:14:12.773Z,101055.34
2022-11-14T07:15:34.281Z,101045.48
2022-11-14T07:16:55.136Z,101057.09
2022-11-14T07:18:17.256Z,101047.23
2022-11-14T07:19:37.793Z,101057.01
2022-11-14T07:20:59.908Z,101052.50
2022-11-14T07:22:22.818Z,101050.77
2022-11-14T07:23:44.128Z,101065.05
2022-11-14T07:25:06.309Z,101063.22
2022-11-14T07:26:26.798Z,101057.86
2022-11-14T07:27:48.038Z,101063.22
2022-11-14T07:29:09.343Z,101063.22
2022-11-14T07:30:30.428Z,101064.08
2022-11-14T07:31:51.895Z,101064.03
2022-11-14T07:33:12.930Z,101068.49
2022-11-14T07:34:33.787Z,101064.03
2022-11-14T07:35:55.478Z,101072.06
2022-11-14T07:37:16.223Z,101068.49
2022-11-14T07:38:38.222Z,101062.20
2022-11-14T07:39:59.617Z,101061.27
2022-11-14T07:41:20.542Z,101071.98
2022-11-14T07:42:41.326Z,101069.30
2022-11-14T07:44:02.356Z,101065.66
2022-11-14T07:45:23.196Z,101068.28
2022-11-14T07:46:43.959Z,101069.99
2022-11-14T07:48:07.361Z,101071.81
2022-11-14T07:49:28.096Z,101071.81
2022-11-14T07:50:49.491Z,101062.84
2022-11-14T07:52:10.839Z,101066.46
2022-11-14T07:53:31.717Z,101061.95
2022-11-14T07:54:53.467Z,101053.92
2022-11-14T07:56:15.272Z,101057.48
2022-11-14T07:57:41.068Z,101051.24
2022-11-14T07:58:58.415Z,101046.77
2022-11-14T08:00:20.653Z,101046.77
2022-11-14T08:01:42.371Z,101041.33
2022-11-14T08:03:03.637Z,101045.80
2022-11-14T08:04:24.557Z,101041.42
2022-11-14T08:05:45.869Z,101044.95
2022-11-14T08:07:07.943Z,101042.27
2022-11-14T08:08:29.424Z,101042.27
2022-11-14T08:09:51.847Z,101043.20
2022-11-14T08:11:12.636Z,101042.27
2022-11-14T08:12:33.895Z,101043.13
2022-11-14T08:13:55.708Z,101039.59
2022-11-14T08:15:16.642Z,101035.09
2022-11-14T08:16:37.412Z,101039.59
2022-11-14T08:17:58.981Z,101039.59
2022-11-14T08:19:19.781Z,101037.77
2022-11-14T08:20:40.712Z,101042.27
2022-11-14T08:22:01.557Z,101036.06
2022-11-14T08:23:22.372Z,101030.70
2022-11-14T08:24:43.783Z,101035.09
2022-11-14T08:26:05.439Z,101035.98
2022-11-14T08:27:26.046Z,101027.94
2022-11-14T08:28:48.085Z,101035.09
2022-11-14T08:30:11.320Z,101034.16
2022-11-14T08:31:33.111Z,101025.27
2022-11-14T08:32:53.973Z,101027.94
2022-11-14T08:34:15.320Z,101030.62
2022-11-14T08:35:36.828Z,101032.41
2022-11-14T08:36:57.511Z,101027.05
2022-11-14T08:38:18.365Z,101031.55
2022-11-14T08:39:39.244Z,101019.91
2022-11-14T08:41:01.262Z,101029.73
2022-11-14T08:42:23.793Z,101022.58
2022-11-14T08:43:45.514Z,101015.48
2022-11-14T08:45:07.435Z,101022.67
2022-11-14T08:46:28.460Z,101010.13
2022-11-14T08:47:52.735Z,101020.84
2022-11-14T08:49:13.784Z,101009.27
2022-11-14T08:50:34.683Z,101023.52
2022-11-14T08:51:55.219Z,101019.02
2022-11-14T08:53:16.163Z,101018.16
2022-11-14T08:54:37.005Z,101015.48
2022-11-14T08:55:58.906Z,101015.48
2022-11-14T08:57:19.890Z,101019.02
2022-11-14T08:58:41.649Z,101022.58
2022-11-14T09:00:04.543Z,101024.38
2022-11-14T09:01:25.390Z,101015.41
2022-11-14T09:02:46.455Z,101020.77
2022-11-14T09:04:07.098Z,101019.02
2022-11-14T09:05:28.370Z,101013.66
2022-11-14T09:06:50.222Z,101015.48
2022-11-14T09:08:11.208Z,101011.87
2022-11-14T09:09:32.813Z,101010.05
2022-11-14T09:10:53.608Z,101006.52
2022-11-14T09:12:14.958Z,101002.95
2022-11-14T09:13:35.789Z,101001.16
2022-11-14T09:14:57.870Z,101001.16
2022-11-14T09:16:18.742Z,100997.59
2022-11-14T09:17:39.609Z,101001.16
2022-11-14T09:19:00.289Z,101002.01
2022-11-14T09:20:24.741Z,101001.16
2022-11-14T09:21:45.157Z,100995.80
2022-11-14T09:23:07.183Z,100995.80
2022-11-14T09:24:28.155Z,100994.91
2022-11-14T09:25:49.185Z,100991.38
2022-11-14T09:27:10.481Z,100991.38
2022-11-14T09:28:31.924Z,100995.80
2022-11-14T09:29:52.663Z,101002.01
2022-11-14T09:31:14.620Z,100990.44
2022-11-14T09:32:35.183Z,101001.16
2022-11-14T09:33:56.157Z,100997.59
2022-11-14T09:35:18.046Z,100994.91
2022-11-14T09:36:38.823Z,100993.12
2022-11-14T09:38:07.792Z,100991.30
2022-11-14T09:39:28.875Z,100998.47
2022-11-14T09:40:59.190Z,100997.59
2022-11-14T09:42:29.657Z,100991.38
2022-11-14T09:44:08.924Z,100992.23
2022-11-14T09:45:29.914Z,100987.84
2022-11-14T09:48:13.776Z,100989.12
2022-11-14T14:04:36.277Z,100917.45
2022-11-14T14:06:32.802Z,100923.90
2022-11-14T14:08:13.530Z,100917.14
2022-11-14T14:09:41.081Z,100924.14
2022-11-14T14:11:20.693Z,100920.64
2022-11-14T14:13:03.997Z,100914.50
2022-11-14T14:14:52.242Z,100916.38
2022-11-14T14:16:35.043Z,100920.95
2022-11-14T14:18:13.961Z,100920.99
2022-11-14T14:19:48.054Z,100922.98
2022-11-14T14:21:35.995Z,100922.41
2022-11-14T14:23:03.993Z,100921.84
2022-11-14T14:24:48.746Z,100920.28
2022-11-14T14:26:25.006Z,100926.94
2022-11-14T14:29:21.769Z,100920.80
2022-11-14T14:32:17.404Z,100923.66
2022-11-14T14:34:56.135Z,100923.81
2022-11-14T14:36:27.927Z,100924.14
2022-11-14T14:37:53.176Z,100932.70
2022-11-14T14:39:19.375Z,100926.11
2022-11-14T14:40:40.525Z,100919.57
2022-11-14T14:42:01.776Z,100926.41
2022-11-14T14:43:28.932Z,100927.10
2022-11-14T14:44:49.692Z,100919.78
2022-11-14T14:46:11.576Z,100932.06
2022-11-14T14:47:41.583Z,100928.37
2022-11-14T14:49:02.793Z,100928.20
2022-11-14T14:50:26.779Z,100926.23
2022-11-14T14:51:47.552Z,100925.18
2022-11-14T14:54:36.015Z,100924.42
2022-11-14T14:56:01.773Z,100917.72
2022-11-14T14:57:24.359Z,100921.28
2022-11-14T14:58:45.272Z,100918.52
2022-11-14T15:01:35.211Z,100916.75
2022-11-14T15:02:56.826Z,100924.42
2022-11-14T15:04:18.848Z,100923.45
2022-11-14T15:05:39.620Z,100926.05
2022-11-14T15:07:01.474Z,100926.84
2022-11-14T15:08:22.279Z,100924.08
2022-11-14T15:09:53.526Z,100920.45
2022-11-14T15:11:16.151Z,100921.31
2022-11-14T15:12:36.904Z,100927.55
2022-11-14T15:13:57.818Z,100923.05
2022-11-14T15:15:20.185Z,100924.79
2022-11-14T15:16:40.697Z,100923.81
2022-11-14T15:18:03.074Z,100930.91
2022-11-14T15:19:25.252Z,100931.86
2022-11-14T15:20:48.105Z,100924.62
2022-11-14T15:22:18.314Z,100931.72
2022-11-14T15:23:39.684Z,100923.59
2022-11-14T15:26:29.714Z,100927.39
2022-11-14T15:27:54.006Z,100923.50
2022-11-14T15:30:37.420Z,100931.81
2022-11-14T15:32:02.416Z,100926.09
2022-11-14T15:33:36.222Z,100932.31
2022-11-14T15:35:09.099Z,100940.34
2022-11-14T15:36:29.621Z,100928.77
2022-11-14T15:38:43.600Z,100934.13
2022-11-14T15:39:37.417Z,100931.36
2022-11-14T15:41:16.648Z,100931.36
2022-11-14T15:42:38.302Z,100933.19
2022-11-14T15:43:59.329Z,100932.31
2022-11-14T15:45:40.827Z,100940.34
2022-11-14T15:47:01.800Z,100940.34
2022-11-14T15:48:22.843Z,100944.86
2022-11-14T15:50:05.252Z,100937.67
2022-11-14T15:51:48.904Z,100939.41
2022-11-14T15:53:21.713Z,100943.03
2022-11-14T15:54:42.341Z,100930.52
2022-11-14T15:56:03.582Z,100929.54
2022-11-14T15:57:24.002Z,100938.55
2022-11-14T15:58:49.221Z,100929.63
2022-11-14T16:00:13.401Z,100932.31
2022-11-14T16:01:34.817Z,100942.94
2022-11-14T16:02:56.901Z,100935.78
2022-11-14T16:04:19.352Z,100933.95
2022-11-14T16:05:39.867Z,100933.88
2022-11-14T16:07:00.202Z,100934.76
2022-11-14T16:08:20.854Z,100935.61
2022-11-14T16:09:41.828Z,100919.88
2022-11-14T16:11:02.641Z,100927.48
2022-11-14T16:12:23.656Z,100925.66
2022-11-14T16:13:47.060Z,100923.86
2022-11-14T16:15:08.663Z,100925.66
2022-11-14T16:16:30.064Z,100931.02
2022-11-14T16:17:50.783Z,100931.02
2022-11-14T16:19:14.833Z,100925.66
2022-11-14T16:20:36.570Z,100928.34
2022-11-14T16:21:59.839Z,100925.66
2022-11-14T16:23:20.477Z,100925.66
2022-11-14T16:24:41.808Z,100925.66
2022-11-14T16:26:02.369Z,100925.66
2022-11-14T16:27:26.581Z,100930.16
2022-11-14T16:28:47.910Z,100928.42
2022-11-14T16:30:13.123Z,100929.31
2022-11-14T16:31:34.080Z,100921.27
2022-11-14T16:32:54.786Z,100921.27
2022-11-14T16:34:18.672Z,100925.66
2022-11-14T16:35:41.174Z,100924.80
2022-11-14T16:37:01.940Z,100920.30
2022-11-14T16:38:23.167Z,100926.55
2022-11-14T16:39:43.706Z,100922.13
2022-11-14T16:41:08.736Z,100924.72
2022-11-14T16:42:29.714Z,100925.60
2022-11-14T16:43:55.767Z,100921.09
2022-11-14T16:45:18.547Z,100924.63
2022-11-14T16:46:39.349Z,100924.54
2022-11-14T16:48:00.092Z,100921.00
2022-11-14T16:49:21.668Z,100920.15
2022-11-14T16:50:42.345Z,100920.15
2022-11-14T16:52:04.134Z,100920.15
2022-11-14T16:53:25.235Z,100928.19
2022-11-14T16:54:45.688Z,100923.69
2022-11-14T16:56:08.698Z,100914.80
2022-11-14T16:57:30.075Z,100922.74
2022-11-14T16:58:54.484Z,100916.50
2022-11-14T17:00:17.409Z,100912.02
2022-11-14T17:01:39.024Z,100918.23
2022-11-14T17:03:00.578Z,100918.23
2022-11-14T17:04:22.629Z,100916.50
2022-11-14T17:06:56.869Z,100909.52
2022-11-14T17:08:19.281Z,100907.42
2022-11-14T17:09:39.811Z,100915.47
2022-11-14T17:11:00.865Z,100913.58
2022-11-14T17:12:21.641Z,100916.27
2022-11-14T17:13:42.740Z,100929.58
2022-11-14T17:15:05.018Z,100922.39
2022-11-14T17:16:26.617Z,100917.03
2022-11-14T17:17:47.419Z,100918.77
2022-11-14T17:19:08.215Z,100913.41
2022-11-14T17:20:28.970Z,100923.19
2022-11-14T17:21:50.409Z,100919.63
2022-11-14T17:23:11.040Z,100919.53
2022-11-14T17:24:31.720Z,100923.95
2022-11-14T17:25:53.675Z,100915.91
2022-11-14T17:27:14.214Z,100918.59
2022-11-14T17:28:36.409Z,100918.59
2022-11-14T17:29:56.912Z,100917.73
2022-11-14T17:31:18.079Z,100921.27
2022-11-14T17:32:39.388Z,100925.69
2022-11-14T17:34:00.449Z,100930.11
2022-11-14T17:35:22.537Z,100922.06
2022-11-14T17:36:44.059Z,100922.92
2022-11-14T17:38:04.443Z,100926.45
2022-11-14T17:39:25.494Z,100919.30
2022-11-14T17:40:46.207Z,100917.56
2022-11-14T17:42:08.004Z,100922.83
2022-11-14T17:43:34.327Z,100899.38
2022-11-14T17:44:52.682Z,100911.25
2022-11-14T17:46:16.189Z,100909.52
2022-11-14T17:47:36.860Z,100912.20
2022-11-14T17:48:58.890Z,100919.39
2022-11-14T17:50:20.200Z,100919.48
2022-11-14T17:51:41.349Z,100916.00
2022-11-14T17:53:02.060Z,100913.41
2022-11-14T17:54:22.935Z,100917.97
2022-11-14T17:55:44.026Z,100923.42
2022-11-14T17:57:05.026Z,100916.35
2022-11-14T17:58:30.340Z,100910.20
2022-11-14T17:59:51.477Z,100916.50
2022-11-14T18:01:14.784Z,100912.11
2022-11-14T18:02:36.206Z,100919.36
2022-11-14T18:04:01.760Z,100912.25
2022-11-14T18:05:20.101Z,100915.02
2022-11-14T18:06:40.939Z,100907.87
2022-11-14T18:08:02.606Z,100908.81
2022-11-14T18:09:23.301Z,100909.75
2022-11-14T18:10:44.361Z,100900.77
2022-11-14T18:12:05.419Z,100902.59
2022-11-14T18:13:26.444Z,100899.03
2022-11-14T18:14:47.498Z,100907.07
2022-11-14T18:17:23.314Z,100907.52
2022-11-14T18:19:58.036Z,100896.79
2022-11-14T18:21:21.579Z,100904.56
2022-11-14T18:22:44.501Z,100894.78
2022-11-14T18:24:05.863Z,100901.03
2022-11-14T18:25:28.204Z,100890.31
2022-11-14T18:26:49.362Z,100893.84
2022-11-14T18:28:10.575Z,100892.02
2022-11-14T18:29:32.939Z,100896.52
2022-11-14T18:30:55.487Z,100901.80
2022-11-14T18:32:17.650Z,100902.65
2022-11-14T18:33:38.717Z,100896.44
2022-11-14T18:34:59.779Z,100892.99
2022-11-14T18:36:23.939Z,100892.11
2022-11-14T18:37:45.589Z,100900.23
2022-11-14T18:39:06.890Z,100903.80
2022-11-14T18:40:29.376Z,100896.70
2022-11-14T18:41:49.760Z,100892.28
2022-11-14T18:43:10.673Z,100893.13
2022-11-14T18:44:31.496Z,100894.96
2022-11-14T18:45:53.695Z,100889.60
2022-11-14T18:47:15.605Z,100888.75
2022-11-14T18:48:37.434Z,100890.55
2022-11-14T18:49:57.873Z,100895.91
2022-11-14T18:51:20.409Z,100885.36
2022-11-14T18:52:43.028Z,100889.86
2022-11-14T18:54:03.554Z,100886.30
2022-11-14T18:55:25.110Z,100894.34
2022-11-14T18:56:47.261Z,100897.02
2022-11-14T18:58:08.530Z,100896.25
2022-11-14T18:59:29.829Z,100898.93
2022-11-14T19:00:50.695Z,100901.61
2022-11-14T19:02:11.143Z,100905.14
2022-11-14T19:03:32.200Z,100906.03
2022-11-14T19:04:53.198Z,100905.14
2022-11-14T19:06:14.729Z,100902.55
2022-11-14T19:07:36.689Z,100906.12
2022-11-14T19:08:58.377Z,100907.91
2022-11-14T19:10:19.441Z,100912.33
2022-11-14T19:11:40.758Z,100912.33
2022-11-14T19:13:01.191Z,100913.19
2022-11-14T19:14:23.113Z,100909.66
2022-11-14T19:15:43.905Z,100912.33
2022-11-14T19:17:06.045Z,100909.66
2022-11-14T19:18:27.164Z,100908.71
2022-11-14T19:19:48.888Z,100906.89
2022-11-14T19:21:09.662Z,100907.73
2022-11-14T19:22:30.904Z,100910.42
2022-11-14T19:23:51.691Z,100910.42
2022-11-14T19:25:13.666Z,100911.39
2022-11-14T19:26:34.533Z,100922.20
2022-11-14T19:27:55.401Z,100915.02
2022-11-14T19:29:16.104Z,100908.71
2022-11-14T19:30:36.985Z,100915.02
2022-11-14T19:31:58.000Z,100914.07
2022-11-14T19:33:20.066Z,100916.75
2022-11-14T19:34:41.883Z,100907.83
2022-11-14T19:36:07.489Z,100906.97
2022-11-14T19:37:29.101Z,100902.55
2022-11-14T19:38:54.267Z,100906.97
2022-11-14T19:40:16.547Z,100903.44
2022-11-14T19:41:37.791Z,100903.44
2022-11-14T19:42:59.451Z,100895.40
2022-11-14T19:44:20.248Z,100894.52
2022-11-14T19:45:42.050Z,100895.45
2022-11-14T19:47:02.957Z,100898.13
2022-11-14T19:48:23.731Z,100892.77
2022-11-14T19:49:44.718Z,100886.66
2022-11-14T19:51:09.782Z,100885.80
2022-11-14T19:52:30.452Z,100883.97
2022-11-14T19:53:51.072Z,100883.12
2022-11-14T19:55:11.988Z,100890.27
2022-11-14T19:56:32.596Z,100882.23
2022-11-14T19:57:53.672Z,100891.16
2022-11-14T19:59:17.968Z,100887.59
2022-11-14T20:00:37.548Z,100883.12
2022-11-14T20:01:58.048Z,100883.88
2022-11-14T20:03:19.649Z,100882.14
2022-11-14T20:04:44.396Z,100882.14
2022-11-14T20:06:13.591Z,100882.14
2022-11-14T20:07:34.334Z,100883.12
2022-11-14T20:08:55.675Z,100878.61
2022-11-14T20:10:18.252Z,100871.52
2022-11-14T20:11:39.197Z,100875.13
2022-11-14T20:13:03.440Z,100874.37
2022-11-14T20:14:24.505Z,100883.27
2022-11-14T20:15:45.352Z,100872.62
2022-11-14T20:17:07.265Z,100879.81
2022-11-14T20:18:30.951Z,100886.91
2022-11-14T20:19:51.682Z,100891.30
2022-11-14T20:21:13.313Z,100886.03
2022-11-14T20:22:34.489Z,100883.34
2022-11-14T20:25:13.451Z,100888.98
2022-11-14T20:26:35.116Z,100888.70
2022-11-14T20:27:56.736Z,100892.33
2022-11-14T20:29:17.741Z,100886.03
2022-11-14T20:30:39.559Z,100886.97
2022-11-14T20:32:02.372Z,100887.85
2022-11-14T20:33:23.457Z,100877.14
2022-11-14T20:34:46.765Z,100880.75
2022-11-14T20:36:10.597Z,100875.39
2022-11-14T20:37:32.586Z,100880.75
2022-11-14T20:38:54.366Z,100876.25
2022-11-14T20:40:16.722Z,100872.72
2022-11-14T20:41:37.822Z,100872.62
2022-11-14T20:42:58.327Z,100873.66
2022-11-14T20:44:20.354Z,100871.06
2022-11-14T20:45:41.218Z,100872.89
2022-11-14T20:47:07.137Z,100867.53
2022-11-14T20:48:25.891Z,100864.00
2022-11-14T20:49:47.839Z,100864.00
2022-11-14T20:51:16.882Z,100866.68
2022-11-14T20:52:39.388Z,100865.80
2022-11-14T20:54:02.273Z,100866.68
2022-11-14T20:55:24.212Z,100861.32
2022-11-14T20:56:44.868Z,100866.68
2022-11-14T20:58:05.618Z,100867.63
2022-11-14T20:59:26.606Z,100864.00
2022-11-14T21:00:51.668Z,100864.85
2022-11-14T21:02:12.289Z,100864.85
2022-11-14T21:03:34.365Z,100863.03
2022-11-14T21:04:56.311Z,100859.41
2022-11-14T21:06:17.172Z,100860.27
2022-11-14T21:07:39.065Z,100862.09
2022-11-14T21:08:59.973Z,100858.55
2022-11-14T21:10:21.199Z,100855.88
2022-11-14T21:11:42.082Z,100857.59
2022-11-14T21:13:07.698Z,100856.64
2022-11-14T21:14:28.295Z,100850.34
2022-11-14T21:15:49.594Z,100856.64
2022-11-14T21:17:10.503Z,100851.28
2022-11-14T21:18:33.736Z,100851.28
2022-11-14T21:19:54.788Z,100850.44
2022-11-14T21:21:17.790Z,100846.02
2022-11-14T21:22:39.343Z,100844.19
2022-11-14T21:24:00.142Z,100851.38
2022-11-14T21:25:21.532Z,100848.69
2022-11-14T21:26:42.479Z,100846.95
2022-11-14T21:28:04.447Z,100848.78
2022-11-14T21:29:26.804Z,100846.02
2022-11-14T21:30:48.399Z,100850.44
2022-11-14T21:32:08.875Z,100846.78
2022-11-14T21:33:31.002Z,100853.02
2022-11-14T21:34:52.781Z,100849.45
2022-11-14T21:36:43.146Z,100850.25
2022-11-14T21:37:36.827Z,100848.43
2022-11-14T21:38:59.853Z,100842.98
2022-11-14T21:40:21.404Z,100844.72
2022-11-14T21:41:42.843Z,100841.95
2022-11-14T21:43:03.418Z,100841.86
2022-11-14T21:44:24.152Z,100827.61
2022-11-14T21:45:54.658Z,100833.83
2022-11-14T21:47:15.588Z,100835.56
2022-11-14T21:48:41.481Z,100834.71
2022-11-14T21:50:01.827Z,100830.20
2022-11-14T21:51:24.341Z,100824.84
2022-11-14T21:52:44.828Z,100825.79
2022-11-14T21:54:06.982Z,100829.35
2022-11-14T21:55:27.979Z,100820.43
2022-11-14T21:56:48.621Z,100823.11
2022-11-14T21:58:11.420Z,100827.52
2022-11-14T21:59:32.838Z,100819.48
2022-11-14T22:00:53.617Z,100821.22
2022-11-14T22:02:15.054Z,100820.28
2022-11-14T22:03:37.264Z,100818.45
2022-11-14T22:04:58.634Z,100819.31
2022-11-14T22:06:19.572Z,100819.31
2022-11-14T22:07:40.253Z,100816.72
2022-11-14T22:09:01.159Z,100809.56
2022-11-14T22:10:22.848Z,100814.92
2022-11-14T22:11:43.717Z,100813.01
2022-11-14T22:13:04.364Z,100809.38
2022-11-14T22:14:25.063Z,100818.19
2022-11-14T22:15:45.947Z,100817.25
2022-11-14T22:17:06.340Z,100813.63
2022-11-14T22:18:27.944Z,100817.16
2022-11-14T22:19:48.596Z,100809.11
2022-11-14T22:21:09.853Z,100808.27
2022-11-14T22:22:30.841Z,100802.91
2022-11-14T22:23:53.733Z,100798.39
2022-11-14T22:25:15.045Z,100797.55
2022-11-14T22:26:36.400Z,100792.18
2022-11-14T22:27:57.825Z,100790.27
2022-11-14T22:29:18.660Z,100790.27
2022-11-14T22:30:39.677Z,100795.63
2022-11-14T22:32:00.809Z,100797.45
2022-11-14T22:33:22.609Z,100791.24